Time;durP1;ratioP1;P1;durP2;ratioP2;P2;SDS_P1;SDS_P2;PMS_P1;PMS_P2;Temp;Humidity;BMP_temperature;BMP_pressure;BME280_temperature;BME280_humidity;BME280_pressure;Samples;Min_cycle;Max_cycle;Signal;HPM_P1;HPM_P2
2023/08/08 00:00:00;;;;;;;4.33;2.97;;;;;;;;;;5030653;28;20197;-49
2023/08/08 00:02:26;;;;;;;4.90;3.80;;;;;;;;;;5030864;28;20655;-49
2023/08/08 00:04:52;;;;;;;5.20;2.90;;;;;;;;;;5030853;28;20666;-48
2023/08/08 00:07:18;;;;;;;3.07;2.53;;;;;;;;;;5031124;28;20231;-48
2023/08/08 00:09:45;;;;;;;3.10;2.80;;;;;;;;;;5030833;28;20231;-48
2023/08/08 00:12:11;;;;;;;4.53;2.43;;;;;;;;;;5030521;28;20698;-48
2023/08/08 00:14:37;;;;;;;3.80;2.47;;;;;;;;;;5031160;28;20249;-48
2023/08/08 00:20:07;;;;;;;3.83;2.60;;;;;;;;;;5005711;28;20235;-48
2023/08/08 00:22:33;;;;;;;5.03;2.70;;;;;;;;;;5030511;28;20224;-48
2023/08/08 00:25:01;;;;;;;7.70;2.63;;;;;;;;;;5031421;28;20282;-48
2023/08/08 00:27:27;;;;;;;4.23;3.07;;;;;;;;;;5034661;28;20197;-47
2023/08/08 00:29:54;;;;;;;6.97;2.97;;;;;;;;;;5034457;28;20225;-48
2023/08/08 00:32:20;;;;;;;4.43;2.63;;;;;;;;;;5034886;28;20197;-49
2023/08/08 00:34:46;;;;;;;4.67;2.87;;;;;;;;;;5034459;28;20224;-48
2023/08/08 00:37:12;;;;;;;3.93;3.00;;;;;;;;;;5034365;28;20258;-49
2023/08/08 00:39:39;;;;;;;3.40;2.50;;;;;;;;;;5034400;28;20283;-50
2023/08/08 00:42:06;;;;;;;4.47;3.23;;;;;;;;;;5034241;28;20244;-49
2023/08/08 00:44:32;;;;;;;3.57;2.60;;;;;;;;;;5034345;28;20721;-49
2023/08/08 00:46:59;;;;;;;5.30;2.40;;;;;;;;;;5033959;28;20189;-50
2023/08/08 00:49:25;;;;;;;4.30;2.70;;;;;;;;;;5034346;28;20197;-49
2023/08/08 00:51:51;;;;;;;3.47;3.10;;;;;;;;;;5032491;28;20205;-49
2023/08/08 00:54:17;;;;;;;4.17;3.37;;;;;;;;;;5030677;28;20254;-49
2023/08/08 00:56:43;;;;;;;4.40;3.13;;;;;;;;;;5034363;28;20203;-49
2023/08/08 00:59:11;;;;;;;4.30;3.03;;;;;;;;;;5034196;28;20279;-50
2023/08/08 01:01:37;;;;;;;3.70;2.70;;;;;;;;;;5034343;28;20208;-50
2023/08/08 01:04:06;;;;;;;4.87;3.03;;;;;;;;;;5034289;28;20544;-49
2023/08/08 01:06:38;;;;;;;5.23;3.43;;;;;;;;;;5034224;28;20197;-49
2023/08/08 01:09:05;;;;;;;3.60;2.57;;;;;;;;;;5034178;28;20189;-50
2023/08/08 01:11:32;;;;;;;5.10;3.07;;;;;;;;;;5034020;28;20674;-49
2023/08/08 01:13:59;;;;;;;4.70;2.83;;;;;;;;;;5033709;28;20200;-52
2023/08/08 01:16:27;;;;;;;5.67;3.20;;;;;;;;;;5033068;28;20307;-49
2023/08/08 01:18:53;;;;;;;3.90;2.83;;;;;;;;;;5033960;28;20219;-49
2023/08/08 01:21:19;;;;;;;6.37;2.97;;;;;;;;;;5033970;28;20193;-49
2023/08/08 01:23:46;;;;;;;4.50;3.10;;;;;;;;;;5033469;28;20298;-49
2023/08/08 01:26:14;;;;;;;4.13;3.43;;;;;;;;;;5033541;28;20201;-49
2023/08/08 01:28:40;;;;;;;4.10;3.10;;;;;;;;;;5033704;28;20201;-49
2023/08/08 01:31:06;;;;;;;3.97;3.00;;;;;;;;;;5033769;28;20208;-50
2023/08/08 01:33:32;;;;;;;4.00;2.87;;;;;;;;;;5033638;28;20200;-50
2023/08/08 01:36:00;;;;;;;4.10;3.03;;;;;;;;;;5033016;28;20629;-49
2023/08/08 01:38:29;;;;;;;4.63;3.30;;;;;;;;;;5030862;28;20193;-50
2023/08/08 01:40:55;;;;;;;5.97;3.40;;;;;;;;;;5033434;28;20200;-49
2023/08/08 01:43:24;;;;;;;5.73;3.10;;;;;;;;;;5033632;28;20201;-49
2023/08/08 01:45:51;;;;;;;8.93;3.60;;;;;;;;;;5033701;28;20201;-49
2023/08/08 01:48:17;;;;;;;4.63;3.17;;;;;;;;;;5033311;28;20323;-49
2023/08/08 01:50:43;;;;;;;3.83;2.80;;;;;;;;;;5033245;28;20943;-49
2023/08/08 01:53:09;;;;;;;4.00;3.27;;;;;;;;;;5033086;28;20712;-49
2023/08/08 01:55:35;;;;;;;3.67;3.03;;;;;;;;;;5033221;28;20711;-49
2023/08/08 01:58:01;;;;;;;4.67;3.07;;;;;;;;;;5033074;28;20205;-49
2023/08/08 02:00:28;;;;;;;3.60;2.90;;;;;;;;;;5033189;28;20205;-49
2023/08/08 02:02:54;;;;;;;4.30;3.00;;;;;;;;;;5032918;28;20288;-49
2023/08/08 02:05:20;;;;;;;3.90;3.20;;;;;;;;;;5033056;28;20615;-49
2023/08/08 02:07:46;;;;;;;4.87;2.77;;;;;;;;;;5032879;28;20205;-47
2023/08/08 02:10:12;;;;;;;4.70;3.50;;;;;;;;;;5032777;28;20534;-49
2023/08/08 02:12:38;;;;;;;7.23;3.20;;;;;;;;;;5032886;28;20208;-49
2023/08/08 02:15:05;;;;;;;4.23;3.20;;;;;;;;;;5032760;28;20288;-49
2023/08/08 02:17:32;;;;;;;3.93;3.53;;;;;;;;;;5032689;28;20228;-49
2023/08/08 02:19:59;;;;;;;3.10;2.80;;;;;;;;;;5032783;28;20292;-49
2023/08/08 02:22:25;;;;;;;3.67;3.20;;;;;;;;;;5032536;28;20290;-49
2023/08/08 02:24:51;;;;;;;4.17;3.30;;;;;;;;;;5032644;28;20244;-48
2023/08/08 02:27:17;;;;;;;3.37;3.00;;;;;;;;;;5032678;28;20207;-48
2023/08/08 02:29:43;;;;;;;3.47;3.17;;;;;;;;;;5014783;28;20288;-48
2023/08/08 02:32:09;;;;;;;5.87;3.20;;;;;;;;;;5032477;28;20228;-49
2023/08/08 02:34:38;;;;;;;4.63;3.33;;;;;;;;;;5032574;28;20201;-49
2023/08/08 02:37:04;;;;;;;4.23;3.30;;;;;;;;;;5032444;28;20675;-49
2023/08/08 02:39:30;;;;;;;4.27;3.30;;;;;;;;;;5032369;28;20211;-49
2023/08/08 02:41:56;;;;;;;5.30;3.23;;;;;;;;;;5032360;28;20193;-49
2023/08/08 02:44:22;;;;;;;3.50;2.80;;;;;;;;;;5032503;28;20283;-48
2023/08/08 02:46:48;;;;;;;6.83;3.27;;;;;;;;;;5032454;28;20678;-49
2023/08/08 02:49:14;;;;;;;3.80;3.27;;;;;;;;;;5032105;28;20316;-49
2023/08/08 02:51:42;;;;;;;5.53;3.50;;;;;;;;;;5032073;28;20237;-49
2023/08/08 02:54:08;;;;;;;4.40;3.30;;;;;;;;;;5032184;28;20244;-49
2023/08/08 02:56:34;;;;;;;5.13;3.70;;;;;;;;;;5032087;28;20225;-49
2023/08/08 02:59:00;;;;;;;4.27;3.17;;;;;;;;;;5031943;28;20231;-49
2023/08/08 03:01:26;;;;;;;6.47;2.97;;;;;;;;;;5032062;28;20205;-49
2023/08/08 03:03:52;;;;;;;3.30;3.00;;;;;;;;;;5032041;28;20189;-49
2023/08/08 03:06:18;;;;;;;4.33;2.90;;;;;;;;;;5031917;28;20193;-49
2023/08/08 03:08:46;;;;;;;6.53;3.50;;;;;;;;;;5031738;28;20246;-49
2023/08/08 03:11:12;;;;;;;5.67;3.20;;;;;;;;;;5031647;28;20270;-49
2023/08/08 03:13:38;;;;;;;7.97;3.60;;;;;;;;;;5031962;28;20734;-49
2023/08/08 03:16:04;;;;;;;4.00;3.03;;;;;;;;;;5031699;28;20563;-49
2023/08/08 03:18:30;;;;;;;8.00;3.10;;;;;;;;;;5031697;28;20207;-49
2023/08/08 03:20:56;;;;;;;4.53;3.20;;;;;;;;;;5031473;28;20583;-49
2023/08/08 03:23:23;;;;;;;6.70;3.60;;;;;;;;;;5031403;28;20243;-49
2023/08/08 03:25:51;;;;;;;4.87;3.53;;;;;;;;;;5031801;28;20201;-49
2023/08/08 03:28:17;;;;;;;5.87;3.50;;;;;;;;;;5031835;28;20553;-49
2023/08/08 03:30:43;;;;;;;4.00;3.23;;;;;;;;;;5031584;28;20196;-49
2023/08/08 03:33:09;;;;;;;4.57;3.47;;;;;;;;;;5031478;28;20205;-49
2023/08/08 03:35:35;;;;;;;4.63;3.33;;;;;;;;;;5031610;28;20319;-48
2023/08/08 03:38:01;;;;;;;4.33;3.50;;;;;;;;;;5031136;28;20279;-49
2023/08/08 03:40:27;;;;;;;5.47;3.60;;;;;;;;;;5031263;28;20312;-49
2023/08/08 03:42:54;;;;;;;5.37;4.00;;;;;;;;;;5031481;28;20192;-49
2023/08/08 03:45:20;;;;;;;5.37;3.63;;;;;;;;;;5031544;28;20645;-49
2023/08/08 03:47:46;;;;;;;4.87;3.80;;;;;;;;;;5031270;28;20296;-49
2023/08/08 03:50:12;;;;;;;6.30;3.67;;;;;;;;;;5031252;28;20279;-49
2023/08/08 03:52:38;;;;;;;6.23;3.70;;;;;;;;;;5031144;28;20235;-49
2023/08/08 03:55:04;;;;;;;5.67;4.10;;;;;;;;;;5031125;28;20228;-48
2023/08/08 03:57:30;;;;;;;6.03;3.70;;;;;;;;;;5031128;28;20204;-49
2023/08/08 03:59:58;;;;;;;4.33;3.30;;;;;;;;;;5030615;28;20201;-49
2023/08/08 04:02:25;;;;;;;5.80;3.80;;;;;;;;;;5031312;28;20325;-49
2023/08/08 04:04:51;;;;;;;6.97;3.80;;;;;;;;;;5031263;28;20302;-49
2023/08/08 04:07:17;;;;;;;8.50;4.10;;;;;;;;;;5030807;28;20862;-49
2023/08/08 04:09:43;;;;;;;5.23;3.70;;;;;;;;;;5030545;28;20205;-49
2023/08/08 04:12:09;;;;;;;5.60;3.60;;;;;;;;;;5030397;28;20205;-49
2023/08/08 04:14:35;;;;;;;5.73;3.87;;;;;;;;;;5031122;28;20207;-49
2023/08/08 04:17:04;;;;;;;4.37;3.87;;;;;;;;;;5029729;28;20727;-49
2023/08/08 04:19:30;;;;;;;7.23;4.50;;;;;;;;;;5030578;28;20301;-49
2023/08/08 04:21:56;;;;;;;7.67;4.13;;;;;;;;;;5030835;28;20250;-49
2023/08/08 04:24:22;;;;;;;8.17;4.17;;;;;;;;;;5030682;28;20272;-49
2023/08/08 04:26:48;;;;;;;6.90;4.20;;;;;;;;;;5030910;28;20695;-49
2023/08/08 04:29:14;;;;;;;8.20;3.60;;;;;;;;;;5030811;28;20220;-49
2023/08/08 04:31:40;;;;;;;7.83;4.10;;;;;;;;;;5030805;28;20227;-49
2023/08/08 04:34:08;;;;;;;7.33;4.17;;;;;;;;;;5030911;28;20200;-49
2023/08/08 04:36:34;;;;;;;6.33;3.50;;;;;;;;;;5030858;28;20244;-49
2023/08/08 04:39:00;;;;;;;9.07;4.77;;;;;;;;;;5030751;28;20248;-49
2023/08/08 04:41:26;;;;;;;4.63;3.27;;;;;;;;;;5030849;28;20233;-49
2023/08/08 04:43:52;;;;;;;4.07;3.57;;;;;;;;;;5030794;28;20233;-49
2023/08/08 04:46:18;;;;;;;5.80;3.43;;;;;;;;;;5030771;28;20203;-48
2023/08/08 04:48:44;;;;;;;6.07;3.20;;;;;;;;;;5030705;28;20382;-48
2023/08/08 04:51:11;;;;;;;6.83;3.40;;;;;;;;;;5030605;28;20232;-48
2023/08/08 04:53:37;;;;;;;7.60;3.70;;;;;;;;;;5030728;28;20552;-48
2023/08/08 04:56:03;;;;;;;6.67;3.93;;;;;;;;;;5030594;28;20583;-48
2023/08/08 04:58:30;;;;;;;6.53;3.43;;;;;;;;;;5030636;28;20204;-48
2023/08/08 05:00:56;;;;;;;5.70;3.70;;;;;;;;;;5030546;28;20197;-48
2023/08/08 05:03:22;;;;;;;3.77;3.30;;;;;;;;;;5030608;28;20207;-48
2023/08/08 05:05:48;;;;;;;6.23;3.50;;;;;;;;;;5030608;28;20208;-48
2023/08/08 05:08:15;;;;;;;4.13;3.23;;;;;;;;;;5030362;28;20197;-48
2023/08/08 05:10:41;;;;;;;4.30;3.00;;;;;;;;;;5030515;28;20201;-48
2023/08/08 05:13:07;;;;;;;4.53;3.20;;;;;;;;;;5032915;28;20263;-48
2023/08/08 05:15:33;;;;;;;5.83;3.30;;;;;;;;;;5033987;28;20276;-47
2023/08/08 05:17:59;;;;;;;6.27;3.57;;;;;;;;;;5033811;28;20629;-49
2023/08/08 05:20:25;;;;;;;5.50;3.30;;;;;;;;;;5033717;28;20200;-48
2023/08/08 05:22:51;;;;;;;7.17;3.70;;;;;;;;;;5033931;28;20221;-49
2023/08/08 05:25:19;;;;;;;4.93;3.20;;;;;;;;;;5033659;28;20311;-49
2023/08/08 05:27:45;;;;;;;8.37;3.83;;;;;;;;;;5033738;28;20299;-49
2023/08/08 05:30:11;;;;;;;8.23;3.60;;;;;;;;;;5033653;28;20201;-49
2023/08/08 05:32:37;;;;;;;6.73;3.37;;;;;;;;;;5033682;28;20324;-49
2023/08/08 05:35:04;;;;;;;6.30;3.60;;;;;;;;;;5033561;28;20216;-49
2023/08/08 05:37:30;;;;;;;4.23;3.27;;;;;;;;;;5033551;28;20200;-49
2023/08/08 05:39:56;;;;;;;4.80;3.43;;;;;;;;;;5033296;28;20197;-49
2023/08/08 05:42:24;;;;;;;8.23;4.07;;;;;;;;;;5033208;28;20202;-49
2023/08/08 05:44:50;;;;;;;7.47;3.70;;;;;;;;;;5033568;28;20259;-48
2023/08/08 05:47:16;;;;;;;8.77;4.10;;;;;;;;;;5033222;28;20205;-49
2023/08/08 05:49:42;;;;;;;5.10;4.10;;;;;;;;;;5032992;28;20201;-49
2023/08/08 05:52:08;;;;;;;6.57;3.70;;;;;;;;;;5033202;28;20201;-49
2023/08/08 05:54:34;;;;;;;5.10;3.30;;;;;;;;;;5033341;28;20201;-49
2023/08/08 05:57:00;;;;;;;4.30;3.60;;;;;;;;;;5032985;28;20231;-49
2023/08/08 05:59:28;;;;;;;5.27;3.47;;;;;;;;;;5033123;28;20243;-48
2023/08/08 06:01:54;;;;;;;7.57;3.70;;;;;;;;;;5033122;28;20204;-49
2023/08/08 06:04:20;;;;;;;5.33;3.87;;;;;;;;;;5033262;28;20201;-49
2023/08/08 06:06:48;;;;;;;4.77;3.40;;;;;;;;;;5032916;28;20547;-49
2023/08/08 06:09:14;;;;;;;7.63;4.13;;;;;;;;;;5032791;28;20224;-48
2023/08/08 06:11:40;;;;;;;6.00;3.67;;;;;;;;;;5033003;28;20200;-49
2023/08/08 06:14:06;;;;;;;6.90;3.30;;;;;;;;;;5033276;28;20193;-49
2023/08/08 06:16:34;;;;;;;5.20;3.40;;;;;;;;;;5032665;28;20311;-49
2023/08/08 06:19:00;;;;;;;6.87;3.53;;;;;;;;;;5032783;28;20213;-50
2023/08/08 06:21:26;;;;;;;5.60;3.30;;;;;;;;;;5032654;28;20268;-49
2023/08/08 06:23:54;;;;;;;5.90;3.20;;;;;;;;;;5032404;28;20762;-49
2023/08/08 06:26:21;;;;;;;5.43;3.30;;;;;;;;;;5032901;28;20197;-50
2023/08/08 06:28:47;;;;;;;9.27;3.40;;;;;;;;;;5032307;28;20197;-49
2023/08/08 06:31:13;;;;;;;7.03;3.37;;;;;;;;;;5032405;28;20208;-50
2023/08/08 06:33:41;;;;;;;5.57;3.37;;;;;;;;;;5032781;28;20228;-49
2023/08/08 06:36:07;;;;;;;6.23;3.50;;;;;;;;;;5032636;28;20252;-50
2023/08/08 06:38:33;;;;;;;5.63;3.10;;;;;;;;;;5032470;28;20201;-49
2023/08/08 06:40:59;;;;;;;5.53;3.00;;;;;;;;;;5032401;28;20284;-50
2023/08/08 06:43:25;;;;;;;5.37;3.20;;;;;;;;;;5032258;28;20566;-50
2023/08/08 06:45:51;;;;;;;5.87;3.07;;;;;;;;;;5032411;28;20197;-49
2023/08/08 06:48:17;;;;;;;5.87;2.90;;;;;;;;;;5032158;28;20198;-50
2023/08/08 06:50:45;;;;;;;5.13;2.97;;;;;;;;;;5032034;28;20607;-49
2023/08/08 06:53:11;;;;;;;4.33;2.53;;;;;;;;;;5031947;28;20296;-50
2023/08/08 06:55:37;;;;;;;8.60;2.77;;;;;;;;;;5032161;28;20317;-49
2023/08/08 06:58:03;;;;;;;5.53;2.77;;;;;;;;;;5031977;28;20224;-49
2023/08/08 07:00:29;;;;;;;5.77;2.67;;;;;;;;;;5031998;28;20248;-50
2023/08/08 07:02:55;;;;;;;5.13;2.60;;;;;;;;;;5031712;28;20195;-51
2023/08/08 07:05:25;;;;;;;6.90;3.13;;;;;;;;;;5032016;28;20292;-49
2023/08/08 07:07:53;;;;;;;5.03;2.60;;;;;;;;;;5031894;28;20208;-51
2023/08/08 07:10:19;;;;;;;3.97;2.30;;;;;;;;;;5031834;28;20202;-51
2023/08/08 07:12:45;;;;;;;6.50;2.30;;;;;;;;;;5031713;28;20200;-50
2023/08/08 07:15:11;;;;;;;7.93;2.77;;;;;;;;;;5031612;28;20228;-50
2023/08/08 07:17:38;;;;;;;5.90;2.43;;;;;;;;;;5031843;28;20208;-51
2023/08/08 07:20:05;;;;;;;3.47;2.30;;;;;;;;;;5031675;28;20202;-50
2023/08/08 07:22:32;;;;;;;5.03;2.70;;;;;;;;;;5031384;28;20279;-50
2023/08/08 07:24:59;;;;;;;5.43;2.20;;;;;;;;;;5031101;28;20721;-50
2023/08/08 07:27:26;;;;;;;6.77;2.63;;;;;;;;;;5031550;28;20202;-50
2023/08/08 07:29:52;;;;;;;4.07;2.17;;;;;;;;;;5031600;28;20210;-51
2023/08/08 07:32:18;;;;;;;4.90;2.33;;;;;;;;;;5031364;28;20623;-50
2023/08/08 07:34:44;;;;;;;3.90;2.07;;;;;;;;;;5030705;28;20595;-50
2023/08/08 07:37:11;;;;;;;6.73;2.13;;;;;;;;;;5031084;28;20237;-50
2023/08/08 07:39:37;;;;;;;4.43;2.00;;;;;;;;;;5031748;28;20524;-48
2023/08/08 07:42:04;;;;;;;2.93;1.87;;;;;;;;;;5031355;28;20200;-51
2023/08/08 07:44:31;;;;;;;4.87;2.10;;;;;;;;;;5031366;28;20204;-48
2023/08/08 07:46:57;;;;;;;4.77;2.07;;;;;;;;;;5031263;28;20245;-49
2023/08/08 07:49:23;;;;;;;4.33;2.00;;;;;;;;;;5031305;28;20195;-49
2023/08/08 07:51:49;;;;;;;4.53;2.10;;;;;;;;;;5031360;28;20209;-50
2023/08/08 07:54:15;;;;;;;4.77;1.93;;;;;;;;;;5031172;28;20200;-49
2023/08/08 07:56:42;;;;;;;4.63;1.90;;;;;;;;;;5031026;28;20221;-49
2023/08/08 07:59:10;;;;;;;3.83;2.00;;;;;;;;;;5031078;28;20198;-48
2023/08/08 08:01:36;;;;;;;3.60;2.10;;;;;;;;;;5031311;28;20203;-53
2023/08/08 08:04:02;;;;;;;3.23;1.87;;;;;;;;;;5031101;28;20676;-53
2023/08/08 08:06:28;;;;;;;3.57;2.00;;;;;;;;;;5031043;28;20191;-53
2023/08/08 08:08:54;;;;;;;4.57;1.90;;;;;;;;;;5030913;28;20707;-48
2023/08/08 08:11:20;;;;;;;2.73;1.93;;;;;;;;;;5031074;28;20207;-48
2023/08/08 08:13:46;;;;;;;6.00;2.10;;;;;;;;;;5030980;28;20226;-48
2023/08/08 08:16:14;;;;;;;4.67;2.00;;;;;;;;;;5030811;28;20237;-48
2023/08/08 08:18:40;;;;;;;4.73;1.90;;;;;;;;;;5030347;28;20198;-51
2023/08/08 08:21:06;;;;;;;4.57;1.67;;;;;;;;;;5029840;28;20206;-49
2023/08/08 08:23:32;;;;;;;5.47;2.27;;;;;;;;;;5030552;28;20214;-49
2023/08/08 08:25:58;;;;;;;4.87;2.10;;;;;;;;;;5030516;28;20255;-49
2023/08/08 08:28:24;;;;;;;4.13;1.93;;;;;;;;;;5028723;28;20210;-48
2023/08/08 08:30:50;;;;;;;4.43;2.10;;;;;;;;;;5028522;28;20265;-49
2023/08/08 08:33:17;;;;;;;3.23;1.73;;;;;;;;;;5029766;28;20230;-49
2023/08/08 08:35:43;;;;;;;5.30;2.33;;;;;;;;;;5029824;28;20225;-49
2023/08/08 08:38:10;;;;;;;3.90;2.00;;;;;;;;;;5029736;28;20207;-49
2023/08/08 08:40:37;;;;;;;5.80;1.90;;;;;;;;;;5029644;28;20197;-48
2023/08/08 08:43:04;;;;;;;6.97;2.00;;;;;;;;;;5029891;28;20201;-49
2023/08/08 08:45:31;;;;;;;4.37;2.00;;;;;;;;;;5029926;28;20197;-49
2023/08/08 08:47:57;;;;;;;4.73;2.10;;;;;;;;;;5033456;28;20244;-48
2023/08/08 08:50:27;;;;;;;2.37;1.77;;;;;;;;;;5033312;28;20202;-48
2023/08/08 08:52:55;;;;;;;3.70;1.77;;;;;;;;;;5033126;28;20278;-49
2023/08/08 08:55:21;;;;;;;5.30;2.00;;;;;;;;;;5033340;28;20226;-49
2023/08/08 08:57:48;;;;;;;3.63;1.87;;;;;;;;;;5033577;28;20248;-48
2023/08/08 09:00:15;;;;;;;4.47;1.80;;;;;;;;;;5033204;28;20204;-49
2023/08/08 09:02:41;;;;;;;4.00;1.53;;;;;;;;;;5033220;28;20660;-49
2023/08/08 09:05:08;;;;;;;3.83;1.77;;;;;;;;;;5033116;28;20238;-49
2023/08/08 09:07:36;;;;;;;3.40;1.97;;;;;;;;;;5033198;28;20245;-49
2023/08/08 09:10:03;;;;;;;4.20;1.70;;;;;;;;;;5033321;28;20206;-49
2023/08/08 09:12:29;;;;;;;3.90;1.93;;;;;;;;;;5033005;28;20212;-48
2023/08/08 09:14:58;;;;;;;2.17;1.70;;;;;;;;;;5032821;28;20267;-49
2023/08/08 09:17:26;;;;;;;3.37;1.60;;;;;;;;;;5032752;28;20206;-49
2023/08/08 09:19:53;;;;;;;4.57;2.03;;;;;;;;;;5033199;28;20205;-49
2023/08/08 09:22:19;;;;;;;4.20;1.70;;;;;;;;;;5033015;28;20213;-48
2023/08/08 09:24:47;;;;;;;3.97;1.93;;;;;;;;;;5032924;28;20736;-49
2023/08/08 09:27:14;;;;;;;4.20;1.70;;;;;;;;;;5032817;28;20201;-50
2023/08/08 09:29:41;;;;;;;2.90;1.70;;;;;;;;;;5032802;28;20199;-48
2023/08/08 09:32:07;;;;;;;3.77;1.93;;;;;;;;;;5032918;28;20205;-48
2023/08/08 09:34:34;;;;;;;3.70;1.60;;;;;;;;;;5033018;28;20205;-48
2023/08/08 09:37:00;;;;;;;3.87;1.80;;;;;;;;;;5032491;28;20257;-48
2023/08/08 09:39:26;;;;;;;2.97;1.83;;;;;;;;;;5032840;28;20288;-48
2023/08/08 09:41:53;;;;;;;3.13;1.60;;;;;;;;;;5032804;28;20690;-50
2023/08/08 09:44:24;;;;;;;3.50;1.77;;;;;;;;;;5032641;28;20211;-49
2023/08/08 09:46:50;;;;;;;6.43;1.83;;;;;;;;;;5032838;28;20201;-48
2023/08/08 09:49:17;;;;;;;2.80;1.60;;;;;;;;;;5032326;28;20219;-49
2023/08/08 09:51:43;;;;;;;3.50;1.60;;;;;;;;;;5032390;28;20826;-49
2023/08/08 09:54:10;;;;;;;3.33;1.67;;;;;;;;;;5032491;28;20725;-49
2023/08/08 09:56:36;;;;;;;3.13;1.60;;;;;;;;;;5032656;28;20224;-49
2023/08/08 09:59:04;;;;;;;4.13;1.53;;;;;;;;;;5031970;28;20242;-48
2023/08/08 10:01:32;;;;;;;5.07;1.80;;;;;;;;;;5032466;28;20617;-49
2023/08/08 10:03:58;;;;;;;2.17;1.50;;;;;;;;;;5032524;28;20395;-49
2023/08/08 10:06:24;;;;;;;3.73;1.70;;;;;;;;;;5032312;28;20263;-50
2023/08/08 10:08:50;;;;;;;1.90;1.23;;;;;;;;;;5032733;28;20203;-49
2023/08/08 10:11:17;;;;;;;3.37;1.80;;;;;;;;;;5032265;28;20201;-49
2023/08/08 10:13:48;;;;;;;2.60;1.57;;;;;;;;;;5032460;28;20211;-49
2023/08/08 10:16:16;;;;;;;2.00;1.30;;;;;;;;;;5032261;28;20316;-49
2023/08/08 10:18:42;;;;;;;3.07;1.30;;;;;;;;;;5032136;28;20686;-49
2023/08/08 10:21:10;;;;;;;2.77;1.33;;;;;;;;;;5032205;28;20706;-49
2023/08/08 10:23:36;;;;;;;2.57;1.30;;;;;;;;;;5032344;28;20221;-49
2023/08/08 10:26:02;;;;;;;3.13;1.40;;;;;;;;;;5032215;28;20202;-49
2023/08/08 10:28:29;;;;;;;2.17;1.10;;;;;;;;;;5032186;28;20207;-49
2023/08/08 10:30:56;;;;;;;2.80;1.17;;;;;;;;;;5032185;28;20260;-49
2023/08/08 10:33:25;;;;;;;3.60;1.40;;;;;;;;;;5032214;28;20206;-54
2023/08/08 10:35:58;;;;;;;2.97;1.50;;;;;;;;;;5032181;28;20316;-49
2023/08/08 10:38:24;;;;;;;4.13;1.30;;;;;;;;;;5031945;28;20216;-49
2023/08/08 10:40:54;;;;;;;1.77;1.30;;;;;;;;;;5032402;28;20210;-49
2023/08/08 10:43:25;;;;;;;3.80;1.27;;;;;;;;;;5032009;28;20215;-49
2023/08/08 10:45:51;;;;;;;3.03;1.33;;;;;;;;;;5031828;28;20289;-49
2023/08/08 10:48:20;;;;;;;3.63;1.60;;;;;;;;;;5031681;28;20199;-48
2023/08/08 10:50:47;;;;;;;1.43;1.17;;;;;;;;;;5031518;28;20737;-48
2023/08/08 10:53:13;;;;;;;3.20;1.00;;;;;;;;;;5031411;28;20251;-48
2023/08/08 10:55:39;;;;;;;3.23;1.23;;;;;;;;;;5031424;28;20699;-48
2023/08/08 10:58:06;;;;;;;2.07;1.33;;;;;;;;;;5031600;28;20247;-48
2023/08/08 11:00:33;;;;;;;2.37;1.43;;;;;;;;;;5031384;28;20192;-48
2023/08/08 11:02:59;;;;;;;3.15;1.20;;;;;;;;;;5031703;28;20071;-48
2023/08/08 11:05:26;;;;;;;4.27;1.30;;;;;;;;;;5031250;28;20193;-49
2023/08/08 11:07:54;;;;;;;3.50;1.27;;;;;;;;;;5031391;28;20207;-49
2023/08/08 11:10:22;;;;;;;2.67;1.37;;;;;;;;;;5030389;28;20215;-49
2023/08/08 11:12:55;;;;;;;2.60;1.03;;;;;;;;;;5031341;28;20203;-49
2023/08/08 11:15:21;;;;;;;4.70;1.50;;;;;;;;;;5031172;28;20218;-49
2023/08/08 11:17:48;;;;;;;3.47;1.40;;;;;;;;;;5031358;28;20197;-49
2023/08/08 11:20:14;;;;;;;1.87;1.27;;;;;;;;;;5030978;28;20198;-49
2023/08/08 11:22:40;;;;;;;1.90;1.20;;;;;;;;;;5030000;28;20265;-49
2023/08/08 11:25:09;;;;;;;4.03;1.40;;;;;;;;;;5030894;28;20247;-49
2023/08/08 11:27:35;;;;;;;4.10;1.60;;;;;;;;;;5030937;28;20675;-49
2023/08/08 11:30:02;;;;;;;1.90;1.20;;;;;;;;;;5030894;28;20240;-49
2023/08/08 11:32:28;;;;;;;3.40;1.37;;;;;;;;;;5030770;28;20254;-50
2023/08/08 11:34:54;;;;;;;3.97;1.20;;;;;;;;;;5030866;28;20204;-48
2023/08/08 11:37:21;;;;;;;3.93;1.40;;;;;;;;;;5024048;28;20221;-50
2023/08/08 11:39:47;;;;;;;4.00;1.20;;;;;;;;;;5030296;28;20192;-49
2023/08/08 11:42:14;;;;;;;3.33;1.40;;;;;;;;;;5030324;28;20193;-49
2023/08/08 11:44:41;;;;;;;1.40;1.20;;;;;;;;;;5030659;28;20221;-49
2023/08/08 11:47:07;;;;;;;3.93;1.30;;;;;;;;;;5030181;28;20211;-50
2023/08/08 11:49:40;;;;;;;3.73;1.30;;;;;;;;;;5030703;28;20204;-50
2023/08/08 11:52:07;;;;;;;4.30;1.60;;;;;;;;;;5030561;28;20192;-49
2023/08/08 11:54:33;;;;;;;2.47;1.40;;;;;;;;;;5030368;28;20655;-49
2023/08/08 11:57:00;;;;;;;3.90;1.20;;;;;;;;;;5030223;28;20905;-49
2023/08/08 11:59:28;;;;;;;3.67;1.37;;;;;;;;;;5029980;28;20508;-50
2023/08/08 12:01:56;;;;;;;3.50;2.70;;;;;;;;;;5030548;28;20208;-50
2023/08/08 12:04:22;;;;;;;2.63;1.20;;;;;;;;;;5030294;28;20208;-50
2023/08/08 12:06:48;;;;;;;2.10;1.30;;;;;;;;;;5030382;28;20193;-50
2023/08/08 12:09:15;;;;;;;3.03;1.57;;;;;;;;;;5028374;28;20205;-50
2023/08/08 12:11:41;;;;;;;2.73;1.50;;;;;;;;;;5028607;28;20239;-51
2023/08/08 12:14:09;;;;;;;3.80;1.53;;;;;;;;;;5030358;28;20651;-50
2023/08/08 12:16:38;;;;;;;2.43;1.13;;;;;;;;;;5030259;28;20236;-51
2023/08/08 12:19:07;;;;;;;1.73;0.90;;;;;;;;;;5030423;28;20538;-50
2023/08/08 12:21:33;;;;;;;3.30;1.17;;;;;;;;;;5032111;28;20216;-52
2023/08/08 12:23:59;;;;;;;3.77;1.47;;;;;;;;;;5034233;28;20243;-50
2023/08/08 12:26:25;;;;;;;1.50;1.40;;;;;;;;;;5034187;28;20648;-52
2023/08/08 12:28:53;;;;;;;2.70;1.60;;;;;;;;;;5034243;28;20200;-48
2023/08/08 12:31:19;;;;;;;2.67;1.40;;;;;;;;;;5034278;28;20197;-51
2023/08/08 12:33:48;;;;;;;2.43;1.37;;;;;;;;;;5033979;28;20203;-50
2023/08/08 12:36:14;;;;;;;3.23;1.10;;;;;;;;;;5033782;28;20589;-49
2023/08/08 12:38:40;;;;;;;1.40;1.20;;;;;;;;;;5034083;28;20206;-49
2023/08/08 12:41:06;;;;;;;2.73;1.33;;;;;;;;;;5034082;28;20204;-49
2023/08/08 12:43:34;;;;;;;6.57;1.43;;;;;;;;;;5034073;28;20197;-49
2023/08/08 12:46:00;;;;;;;2.37;1.30;;;;;;;;;;5033883;28;20682;-48
2023/08/08 12:48:26;;;;;;;2.00;1.10;;;;;;;;;;5033582;28;20296;-49
2023/08/08 12:50:53;;;;;;;1.17;0.97;;;;;;;;;;5033509;28;20198;-50
2023/08/08 12:53:19;;;;;;;1.63;1.13;;;;;;;;;;5033665;28;20203;-50
2023/08/08 12:55:45;;;;;;;2.70;1.57;;;;;;;;;;5033574;28;20794;-49
2023/08/08 12:58:11;;;;;;;1.10;1.00;;;;;;;;;;5033551;28;20291;-49
2023/08/08 13:00:37;;;;;;;1.67;1.00;;;;;;;;;;5033843;28;20296;-50
2023/08/08 13:03:03;;;;;;;3.43;1.30;;;;;;;;;;5033671;28;20281;-50
2023/08/08 13:05:29;;;;;;;2.63;1.30;;;;;;;;;;5031458;28;20692;-49
2023/08/08 13:07:57;;;;;;;2.50;1.00;;;;;;;;;;5033046;28;20234;-50
2023/08/08 13:10:23;;;;;;;3.10;1.30;;;;;;;;;;5033140;28;20230;-50
2023/08/08 13:12:49;;;;;;;2.13;1.40;;;;;;;;;;5033526;28;20318;-50
2023/08/08 13:15:15;;;;;;;2.07;1.13;;;;;;;;;;5033103;28;20210;-51
2023/08/08 13:17:41;;;;;;;4.17;1.50;;;;;;;;;;5032931;28;20201;-51
2023/08/08 13:20:07;;;;;;;1.30;1.10;;;;;;;;;;5033118;28;20600;-50
2023/08/08 13:22:33;;;;;;;1.93;1.10;;;;;;;;;;5032936;28;20228;-50
2023/08/08 13:25:01;;;;;;;2.03;1.00;;;;;;;;;;5033042;28;20232;-51
2023/08/08 13:27:27;;;;;;;5.00;1.90;;;;;;;;;;5032637;28;20192;-50
2023/08/08 13:29:53;;;;;;;3.00;1.27;;;;;;;;;;5033173;28;20196;-51
2023/08/08 13:32:19;;;;;;;4.50;1.50;;;;;;;;;;5032228;28;20193;-51
2023/08/08 13:34:45;;;;;;;2.93;1.67;;;;;;;;;;5032805;28;20203;-51
2023/08/08 13:37:11;;;;;;;2.03;1.20;;;;;;;;;;5032643;28;20319;-51
2023/08/08 13:39:37;;;;;;;4.10;1.23;;;;;;;;;;5032846;28;20645;-51
2023/08/08 13:42:05;;;;;;;3.60;1.40;;;;;;;;;;5032787;28;20204;-50
2023/08/08 13:44:31;;;;;;;8.27;1.30;;;;;;;;;;5032527;28;20212;-50
2023/08/08 13:46:57;;;;;;;1.83;1.13;;;;;;;;;;5032856;28;20243;-51
2023/08/08 13:49:26;;;;;;;2.17;1.27;;;;;;;;;;5032646;28;20201;-51
2023/08/08 13:51:52;;;;;;;2.83;1.20;;;;;;;;;;5032863;28;20204;-50
2023/08/08 13:54:18;;;;;;;1.93;1.10;;;;;;;;;;5032633;28;20665;-49
2023/08/08 13:56:44;;;;;;;2.43;1.23;;;;;;;;;;5031403;28;20801;-49
2023/08/08 13:59:12;;;;;;;2.70;1.30;;;;;;;;;;5032996;28;20266;-49
2023/08/08 14:01:38;;;;;;;2.67;1.33;;;;;;;;;;5033074;28;20664;-49
2023/08/08 14:04:04;;;;;;;2.43;1.20;;;;;;;;;;5033229;28;20201;-50
2023/08/08 14:06:30;;;;;;;2.60;1.10;;;;;;;;;;5032822;28;20194;-50
2023/08/08 14:08:57;;;;;;;1.73;1.20;;;;;;;;;;5033008;28;20200;-50
2023/08/08 14:11:23;;;;;;;1.80;1.30;;;;;;;;;;5032991;28;20237;-48
2023/08/08 14:13:49;;;;;;;2.30;1.00;;;;;;;;;;5030958;28;20678;-50
2023/08/08 14:16:16;;;;;;;3.63;1.80;;;;;;;;;;5030550;28;20573;-51
2023/08/08 14:18:43;;;;;;;2.47;1.50;;;;;;;;;;5032740;28;20205;-51
2023/08/08 14:21:09;;;;;;;3.80;1.10;;;;;;;;;;5032584;28;20203;-50
2023/08/08 14:23:35;;;;;;;1.63;1.10;;;;;;;;;;5032402;28;20740;-50
2023/08/08 14:26:01;;;;;;;1.73;1.13;;;;;;;;;;5032552;28;20197;-50
2023/08/08 14:28:27;;;;;;;1.93;1.27;;;;;;;;;;5032340;28;20443;-51
2023/08/08 14:30:53;;;;;;;2.67;1.20;;;;;;;;;;5032484;28;20214;-51
2023/08/08 14:33:20;;;;;;;1.60;0.90;;;;;;;;;;5032156;28;20225;-50
2023/08/08 14:35:47;;;;;;;2.37;1.30;;;;;;;;;;5032118;28;20284;-51
2023/08/08 14:38:13;;;;;;;3.53;1.23;;;;;;;;;;5032336;28;20206;-50
2023/08/08 14:40:39;;;;;;;2.30;1.30;;;;;;;;;;5032325;28;20228;-51